createdAt,value
2018-07-15T00:01:11.715Z,4.40
2018-07-15T00:03:38.900Z,4.53
2018-07-15T00:06:06.105Z,3.57
2018-07-15T00:08:33.756Z,4.63
2018-07-15T00:11:00.937Z,3.97
2018-07-15T00:13:28.165Z,3.90
2018-07-15T00:15:56.289Z,4.70
2018-07-15T00:18:23.684Z,4.47
2018-07-15T00:20:50.802Z,4.43
2018-07-15T00:23:17.935Z,4.87
2018-07-15T00:25:45.095Z,4.87
2018-07-15T00:28:12.292Z,4.60
2018-07-15T00:30:39.437Z,4.90
2018-07-15T00:33:06.539Z,4.33
2018-07-15T00:35:33.669Z,5.93
2018-07-15T00:38:00.947Z,4.77
2018-07-15T00:40:28.361Z,6.20
2018-07-15T00:42:55.575Z,5.85
2018-07-15T00:45:22.853Z,4.40
2018-07-15T00:47:49.978Z,4.53
2018-07-15T00:50:17.341Z,5.00
2018-07-15T00:52:44.601Z,5.40
2018-07-15T00:55:11.797Z,4.63
2018-07-15T00:57:38.960Z,5.07
2018-07-15T01:00:06.400Z,4.97
2018-07-15T01:02:33.717Z,6.30
2018-07-15T01:05:01.208Z,5.80
2018-07-15T01:07:28.552Z,4.73
2018-07-15T01:09:55.809Z,4.63
2018-07-15T01:12:23.002Z,5.97
2018-07-15T01:14:50.292Z,4.97
2018-07-15T01:17:17.490Z,4.77
2018-07-15T01:19:44.638Z,4.27
2018-07-15T01:22:12.073Z,4.73
2018-07-15T01:24:39.192Z,4.80
2018-07-15T01:27:06.509Z,4.77
2018-07-15T01:29:33.925Z,5.40
2018-07-15T01:32:01.106Z,4.90
2018-07-15T01:34:28.328Z,5.87
2018-07-15T01:36:55.556Z,4.73
2018-07-15T01:39:22.793Z,4.83
2018-07-15T01:41:50.142Z,5.43
2018-07-15T01:44:18.007Z,5.07
2018-07-15T01:46:45.092Z,4.63
2018-07-15T01:49:12.388Z,4.80
2018-07-15T01:51:39.597Z,4.40
2018-07-15T01:54:06.813Z,4.60
2018-07-15T01:56:33.988Z,5.03
2018-07-15T01:59:01.532Z,5.30
2018-07-15T02:01:29.290Z,5.23
2018-07-15T02:03:56.441Z,5.20
2018-07-15T02:06:23.863Z,5.90
2018-07-15T02:08:50.969Z,5.27
2018-07-15T02:11:18.221Z,6.17
2018-07-15T02:13:45.381Z,5.57
2018-07-15T02:16:12.620Z,5.57
2018-07-15T02:18:39.768Z,5.60
2018-07-15T02:21:08.981Z,5.80
2018-07-15T02:23:36.087Z,7.90
2018-07-15T02:26:03.596Z,5.03
2018-07-15T02:28:30.847Z,5.93
2018-07-15T02:30:58.181Z,5.40
2018-07-15T02:33:25.480Z,4.97
2018-07-15T02:35:52.667Z,4.83
2018-07-15T02:38:20.565Z,5.13
2018-07-15T02:40:47.655Z,5.10
2018-07-15T02:43:14.839Z,4.67
2018-07-15T02:45:41.932Z,6.07
2018-07-15T02:48:09.243Z,5.30
2018-07-15T02:50:36.421Z,5.40
2018-07-15T02:53:03.527Z,5.20
2018-07-15T02:55:30.652Z,5.33
2018-07-15T02:57:58.371Z,5.67
2018-07-15T03:00:27.851Z,5.23
2018-07-15T03:02:55.160Z,5.60
2018-07-15T03:05:24.954Z,4.93
2018-07-15T03:07:52.194Z,5.63
2018-07-15T03:10:19.404Z,7.83
2018-07-15T03:12:46.595Z,5.47
2018-07-15T03:15:13.708Z,4.97
2018-07-15T03:17:40.852Z,5.60
2018-07-15T03:20:08.118Z,5.57
2018-07-15T03:22:35.292Z,5.80
2018-07-15T03:25:02.717Z,6.33
2018-07-15T03:27:29.960Z,5.93
2018-07-15T03:29:57.129Z,6.50
2018-07-15T03:32:24.339Z,12.90
2018-07-15T03:34:51.602Z,6.87
2018-07-15T03:37:18.734Z,8.80
2018-07-15T03:39:46.011Z,8.60
2018-07-15T03:42:13.185Z,7.30
2018-07-15T03:44:40.304Z,7.27
2018-07-15T03:47:07.719Z,8.40
2018-07-15T03:49:34.852Z,6.30
2018-07-15T03:52:02.173Z,6.40
2018-07-15T03:54:29.301Z,5.47
2018-07-15T03:56:56.610Z,6.53
2018-07-15T03:59:23.877Z,5.97
2018-07-15T04:01:51.211Z,6.97
2018-07-15T04:04:18.365Z,5.17
2018-07-15T04:06:45.462Z,5.33
2018-07-15T04:09:12.938Z,6.17
2018-07-15T04:11:40.208Z,5.80
2018-07-15T04:14:07.389Z,6.13
2018-07-15T04:16:34.614Z,6.27
2018-07-15T04:19:01.916Z,7.50
2018-07-15T04:21:29.089Z,7.23
2018-07-15T04:23:56.336Z,7.60
2018-07-15T04:26:24.135Z,6.13
2018-07-15T04:28:51.285Z,7.70
2018-07-15T04:31:18.589Z,6.17
2018-07-15T04:33:45.756Z,5.77
2018-07-15T04:36:12.892Z,5.13
2018-07-15T04:38:40.141Z,5.00
2018-07-15T04:41:07.289Z,4.80
2018-07-15T04:43:34.387Z,5.30
2018-07-15T04:46:01.527Z,5.33
2018-07-15T04:48:28.723Z,5.33
2018-07-15T04:50:56.677Z,6.30
2018-07-15T04:53:23.857Z,5.37
2018-07-15T04:55:51.054Z,5.90
2018-07-15T04:58:18.301Z,5.90
2018-07-15T05:00:46.008Z,6.30
2018-07-15T05:03:13.223Z,6.00
2018-07-15T05:05:40.323Z,5.63
2018-07-15T05:08:08.781Z,6.13
2018-07-15T05:10:37.119Z,5.57
2018-07-15T05:13:05.054Z,6.63
2018-07-15T05:15:33.477Z,6.27
2018-07-15T05:18:02.263Z,5.60
2018-07-15T05:20:30.846Z,5.63
2018-07-15T05:22:58.964Z,6.00
2018-07-15T05:25:28.931Z,6.23
2018-07-15T05:27:58.561Z,6.90
2018-07-15T05:30:27.442Z,7.00
2018-07-15T05:32:57.728Z,6.67
2018-07-15T05:35:27.016Z,6.63
2018-07-15T05:37:57.074Z,6.10
2018-07-15T05:40:29.469Z,7.33
2018-07-15T05:43:01.502Z,5.73
2018-07-15T05:45:29.726Z,6.63
2018-07-15T05:47:57.877Z,4.87
2018-07-15T05:50:27.051Z,4.93
2018-07-15T05:52:57.319Z,4.27
2018-07-15T05:55:28.221Z,3.70
2018-07-15T05:58:00.466Z,4.00
2018-07-15T06:00:32.127Z,4.60
2018-07-15T06:03:01.928Z,5.00
2018-07-15T06:05:34.151Z,3.70
2018-07-15T06:08:04.994Z,5.07
2018-07-15T06:10:34.311Z,2.47
2018-07-15T06:13:03.514Z,2.60
2018-07-15T06:15:32.703Z,2.80
2018-07-15T06:18:01.650Z,2.57
2018-07-15T06:20:30.738Z,3.23
2018-07-15T06:23:00.305Z,2.33
2018-07-15T06:25:28.900Z,2.60
2018-07-15T06:27:57.206Z,2.87
2018-07-15T06:30:27.271Z,1.93
2018-07-15T06:32:56.409Z,2.20
2018-07-15T06:35:23.657Z,2.30
2018-07-15T06:37:51.879Z,2.10
2018-07-15T06:40:23.471Z,1.93
2018-07-15T06:42:50.699Z,2.50
2018-07-15T06:45:17.852Z,1.70
2018-07-15T06:47:45.076Z,1.60
2018-07-15T06:50:12.269Z,2.17
2018-07-15T06:52:39.396Z,2.73
2018-07-15T06:55:06.957Z,2.50
2018-07-15T06:57:34.130Z,2.50
2018-07-15T07:00:01.358Z,2.03
2018-07-15T07:02:28.739Z,3.07
2018-07-15T07:04:56.005Z,2.60
2018-07-15T07:07:23.370Z,4.23
2018-07-15T07:09:50.564Z,3.13
2018-07-15T07:12:17.702Z,2.43
2018-07-15T07:14:44.837Z,3.53
2018-07-15T07:17:12.054Z,1.83
2018-07-15T07:19:39.219Z,1.47
2018-07-15T07:22:06.344Z,1.37
2018-07-15T07:24:33.747Z,1.70
2018-07-15T07:27:00.845Z,1.77
2018-07-15T07:29:28.005Z,1.70
2018-07-15T07:31:55.354Z,2.43
2018-07-15T07:34:29.987Z,2.17
2018-07-15T07:36:57.245Z,2.10
2018-07-15T07:39:24.809Z,2.07
2018-07-15T07:41:51.976Z,2.13
2018-07-15T07:44:19.429Z,2.00
2018-07-15T07:46:46.592Z,2.57
2018-07-15T07:49:13.884Z,2.17
2018-07-15T07:51:41.043Z,2.97
2018-07-15T07:54:08.214Z,1.80
2018-07-15T07:56:35.410Z,2.37
2018-07-15T07:59:02.757Z,3.53
2018-07-15T08:01:29.968Z,2.57
2018-07-15T08:03:57.782Z,2.30
2018-07-15T08:06:25.111Z,2.07
2018-07-15T08:08:52.270Z,1.97
2018-07-15T08:11:19.553Z,1.93
2018-07-15T08:13:46.690Z,2.60
2018-07-15T08:16:13.834Z,2.17
2018-07-15T08:18:41.116Z,2.03
2018-07-15T08:21:09.385Z,2.17
2018-07-15T08:23:36.494Z,2.60
2018-07-15T08:26:03.695Z,1.60
2018-07-15T08:28:31.384Z,1.87
2018-07-15T08:31:10.246Z,2.80
2018-07-15T08:33:37.541Z,2.80
2018-07-15T08:36:04.803Z,2.00
2018-07-15T08:38:31.958Z,2.33
2018-07-15T08:40:59.105Z,2.33
2018-07-15T08:43:26.220Z,1.90
2018-07-15T08:45:53.697Z,1.87
2018-07-15T08:48:20.981Z,2.43
2018-07-15T08:50:48.422Z,2.33
2018-07-15T08:53:15.620Z,2.43
2018-07-15T08:55:44.339Z,2.03
2018-07-15T08:58:11.541Z,2.30
2018-07-15T09:00:38.652Z,1.97
2018-07-15T09:03:06.004Z,1.70
2018-07-15T09:05:34.693Z,2.13
2018-07-15T09:08:02.021Z,1.60
2018-07-15T09:10:29.176Z,1.90
2018-07-15T09:12:56.273Z,2.33
2018-07-15T09:15:23.399Z,2.27
2018-07-15T09:17:51.088Z,2.73
2018-07-15T09:20:18.241Z,2.33
2018-07-15T09:22:45.412Z,1.40
2018-07-15T09:25:12.931Z,1.73
2018-07-15T09:27:40.037Z,2.17
2018-07-15T09:30:07.688Z,2.57
2018-07-15T09:32:34.886Z,3.53
2018-07-15T09:35:02.014Z,1.50
2018-07-15T09:37:29.134Z,1.87
2018-07-15T09:39:57.048Z,1.63
2018-07-15T09:42:24.205Z,1.70
2018-07-15T09:44:51.450Z,3.27
2018-07-15T09:47:18.952Z,1.87
2018-07-15T09:49:46.152Z,1.40
2018-07-15T09:52:13.798Z,1.47
2018-07-15T09:54:40.971Z,1.70
2018-07-15T09:57:08.076Z,1.53
2018-07-15T09:59:35.187Z,1.73
2018-07-15T10:02:02.335Z,3.93
2018-07-15T10:04:29.427Z,2.73
2018-07-15T10:06:56.549Z,3.27
2018-07-15T10:09:23.726Z,1.73
2018-07-15T10:11:51.589Z,1.10
2018-07-15T10:14:18.805Z,1.67
2018-07-15T10:16:46.042Z,1.95
2018-07-15T10:19:13.306Z,2.13
2018-07-15T10:21:40.468Z,1.40
2018-07-15T10:24:08.138Z,1.47
2018-07-15T10:26:35.320Z,2.40
2018-07-15T10:29:02.867Z,1.20
2018-07-15T10:31:30.040Z,1.13
2018-07-15T10:33:58.574Z,2.13
2018-07-15T10:36:25.768Z,1.30
2018-07-15T10:38:53.020Z,3.53
2018-07-15T10:41:20.167Z,2.13
2018-07-15T10:43:49.200Z,1.43
2018-07-15T10:46:16.489Z,1.60
2018-07-15T10:48:43.842Z,1.30
2018-07-15T10:51:10.974Z,1.43
2018-07-15T10:53:38.147Z,1.43
2018-07-15T10:56:05.308Z,2.47
2018-07-15T10:58:32.952Z,1.83
2018-07-15T11:01:00.208Z,1.30
2018-07-15T11:03:27.304Z,1.30
2018-07-15T11:05:54.537Z,1.87
2018-07-15T11:08:21.746Z,1.30
2018-07-15T11:10:48.922Z,1.50
2018-07-15T11:13:17.063Z,1.30
2018-07-15T11:15:44.316Z,3.40
2018-07-15T11:18:11.547Z,2.93
2018-07-15T11:20:38.691Z,1.63
2018-07-15T11:23:05.939Z,1.67
2018-07-15T11:25:33.459Z,2.10
2018-07-15T11:28:00.592Z,1.93
2018-07-15T11:30:28.000Z,1.20
2018-07-15T11:32:55.110Z,2.77
2018-07-15T11:35:22.319Z,1.93
2018-07-15T11:37:49.984Z,1.17
2018-07-15T11:40:17.376Z,1.63
2018-07-15T11:42:44.598Z,1.20
2018-07-15T11:45:11.747Z,3.50
2018-07-15T11:47:39.069Z,1.80
2018-07-15T11:50:06.273Z,2.77
2018-07-15T11:52:33.562Z,1.63
2018-07-15T11:55:00.776Z,1.67
2018-07-15T11:57:27.890Z,2.10
2018-07-15T11:59:55.092Z,2.20
2018-07-15T12:02:22.604Z,1.85
2018-07-15T12:04:50.025Z,2.08
2018-07-15T12:07:17.903Z,3.52
2018-07-15T12:09:46.024Z,2.52
2018-07-15T12:12:13.149Z,2.17
2018-07-15T12:14:40.313Z,1.75
2018-07-15T12:17:07.667Z,3.03
2018-07-15T12:19:34.921Z,1.83
2018-07-15T12:22:02.080Z,2.97
2018-07-15T12:24:29.177Z,1.60
2018-07-15T12:26:56.291Z,1.77
2018-07-15T12:29:23.568Z,1.77
2018-07-15T12:31:50.832Z,1.80
2018-07-15T12:34:18.264Z,3.53
2018-07-15T12:36:46.788Z,2.23
2018-07-15T12:39:13.906Z,3.27
2018-07-15T12:41:41.032Z,3.97
2018-07-15T12:44:08.543Z,1.93
2018-07-15T12:46:35.891Z,2.70
2018-07-15T12:49:03.136Z,2.43
2018-07-15T12:51:30.432Z,2.27
2018-07-15T12:53:57.583Z,2.10
2018-07-15T12:56:24.881Z,1.93
2018-07-15T12:58:52.494Z,3.50
2018-07-15T13:01:19.785Z,2.70
2018-07-15T13:03:47.059Z,3.60
2018-07-15T13:06:14.281Z,1.90
2018-07-15T13:08:41.504Z,4.47
2018-07-15T13:11:11.045Z,3.90
2018-07-15T13:13:38.285Z,3.03
2018-07-15T13:16:05.420Z,2.20
2018-07-15T13:18:32.538Z,3.80
2018-07-15T13:20:59.798Z,2.03
2018-07-15T13:23:27.160Z,3.10
2018-07-15T13:25:54.385Z,2.37
2018-07-15T13:28:21.672Z,2.10
2018-07-15T13:30:48.944Z,3.03
2018-07-15T13:33:17.160Z,2.77
2018-07-15T13:35:44.919Z,3.27
2018-07-15T13:38:12.973Z,2.87
2018-07-15T13:40:40.206Z,4.10
2018-07-15T13:43:07.588Z,2.30
2018-07-15T13:45:34.795Z,2.23
2018-07-15T13:48:01.911Z,2.60
2018-07-15T13:50:29.330Z,3.77
2018-07-15T13:52:56.802Z,4.70
2018-07-15T13:55:23.996Z,3.83
2018-07-15T13:57:51.405Z,2.50
2018-07-15T14:00:18.734Z,3.07
2018-07-15T14:02:45.902Z,2.23
2018-07-15T14:05:13.063Z,2.93
2018-07-15T14:07:40.188Z,2.53
2018-07-15T14:10:07.402Z,4.53
2018-07-15T14:12:34.566Z,3.93
2018-07-15T14:15:01.732Z,2.37
2018-07-15T14:17:28.865Z,2.80
2018-07-15T14:19:56.068Z,3.90
2018-07-15T14:22:23.412Z,2.43
2018-07-15T14:24:50.902Z,3.67
2018-07-15T14:27:18.220Z,3.57
2018-07-15T14:29:45.406Z,3.00
2018-07-15T14:32:12.540Z,2.50
2018-07-15T14:34:39.851Z,2.30
2018-07-15T14:37:06.962Z,2.70
2018-07-15T14:39:37.251Z,3.27
2018-07-15T14:42:04.933Z,4.07
2018-07-15T14:44:32.039Z,2.63
2018-07-15T14:47:00.080Z,4.07
2018-07-15T14:49:27.431Z,3.03
2018-07-15T14:51:54.649Z,2.20
2018-07-15T14:54:21.976Z,2.57
2018-07-15T14:56:49.307Z,2.70
2018-07-15T14:59:17.002Z,5.43
2018-07-15T15:01:44.148Z,3.63
2018-07-15T15:04:11.366Z,4.27
2018-07-15T15:06:38.512Z,2.70
2018-07-15T15:09:06.805Z,2.50
2018-07-15T15:11:34.206Z,3.77
2018-07-15T15:14:01.396Z,2.83
2018-07-15T15:16:28.629Z,3.37
2018-07-15T15:18:55.854Z,2.47
2018-07-15T15:21:24.032Z,2.58
2018-07-15T15:23:51.356Z,3.12
2018-07-15T15:26:18.500Z,2.22
2018-07-15T15:28:46.609Z,2.77
2018-07-15T15:31:13.745Z,3.47
2018-07-15T15:33:40.983Z,3.10
2018-07-15T15:36:08.265Z,2.30
2018-07-15T15:38:35.490Z,2.12
2018-07-15T15:41:03.099Z,3.50
2018-07-15T15:43:30.694Z,2.10
2018-07-15T15:45:58.465Z,2.85
2018-07-15T15:48:26.175Z,2.83
2018-07-15T15:50:53.331Z,2.17
2018-07-15T15:53:20.456Z,3.08
2018-07-15T15:55:48.115Z,2.20
2018-07-15T15:58:15.430Z,3.52
2018-07-15T16:00:42.650Z,4.25
2018-07-15T16:03:09.853Z,2.90
2018-07-15T16:05:37.371Z,2.10
2018-07-15T16:08:05.470Z,4.42
2018-07-15T16:10:34.848Z,3.83
2018-07-15T16:13:02.179Z,2.25
2018-07-15T16:15:30.679Z,2.25
2018-07-15T16:17:59.534Z,2.92
2018-07-15T16:20:27.653Z,2.55
2018-07-15T16:22:54.911Z,3.23
2018-07-15T16:25:22.771Z,3.80
2018-07-15T16:27:49.919Z,2.77
2018-07-15T16:30:17.065Z,3.23
2018-07-15T16:32:44.212Z,2.37
2018-07-15T16:35:11.426Z,3.43
2018-07-15T16:37:38.617Z,3.53
2018-07-15T16:40:06.150Z,2.30
2018-07-15T16:42:33.567Z,2.63
2018-07-15T16:45:02.008Z,2.73
2018-07-15T16:47:29.762Z,2.70
2018-07-15T16:49:58.567Z,3.27
2018-07-15T16:52:26.214Z,2.47
2018-07-15T16:54:58.239Z,3.83
2018-07-15T16:57:25.457Z,3.00
2018-07-15T16:59:53.484Z,2.70
2018-07-15T17:02:20.691Z,3.07
2018-07-15T17:04:47.884Z,3.53
2018-07-15T17:07:15.059Z,2.57
2018-07-15T17:09:42.222Z,3.40
2018-07-15T17:12:09.429Z,2.37
2018-07-15T17:14:36.625Z,4.63
2018-07-15T17:17:04.155Z,2.50
2018-07-15T17:19:31.335Z,2.60
2018-07-15T17:21:58.873Z,3.23
2018-07-15T17:24:27.332Z,3.07
2018-07-15T17:26:55.126Z,3.03
2018-07-15T17:29:22.537Z,3.30
2018-07-15T17:31:51.353Z,2.37
2018-07-15T17:34:18.498Z,2.60
2018-07-15T17:36:45.705Z,2.40
2018-07-15T17:39:12.855Z,2.83
2018-07-15T17:41:40.038Z,2.67
2018-07-15T17:44:07.196Z,2.30
2018-07-15T17:46:35.349Z,3.97
2018-07-15T17:49:02.729Z,2.40
2018-07-15T17:51:30.114Z,2.43
2018-07-15T17:53:58.948Z,2.80
2018-07-15T17:56:26.569Z,3.80
2018-07-15T17:58:53.751Z,2.53
2018-07-15T18:01:21.051Z,3.50
2018-07-15T18:03:48.272Z,2.23
2018-07-15T18:06:15.445Z,2.47
2018-07-15T18:08:42.604Z,4.60
2018-07-15T18:11:09.736Z,2.63
2018-07-15T18:13:37.255Z,2.80
2018-07-15T18:16:04.898Z,2.60
2018-07-15T18:18:32.328Z,2.70
2018-07-15T18:20:59.854Z,3.80
2018-07-15T18:23:28.246Z,14.20
2018-07-15T18:25:55.478Z,10.77
2018-07-15T18:28:22.635Z,8.67
2018-07-15T18:30:49.859Z,7.33
2018-07-15T18:33:17.024Z,6.93
2018-07-15T18:35:44.148Z,5.93
2018-07-15T18:38:11.343Z,4.63
2018-07-15T18:40:38.437Z,5.27
2018-07-15T18:43:06.430Z,4.20
2018-07-15T18:45:33.877Z,3.53
2018-07-15T18:48:01.578Z,4.43
2018-07-15T18:50:29.442Z,3.67
2018-07-15T18:52:58.804Z,3.57
2018-07-15T18:55:26.446Z,3.83
2018-07-15T18:57:53.623Z,4.17
2018-07-15T19:00:20.809Z,3.33
2018-07-15T19:02:48.059Z,3.90
2018-07-15T19:05:15.195Z,4.50
2018-07-15T19:07:42.451Z,3.40
2018-07-15T19:10:09.584Z,3.83
2018-07-15T19:12:36.925Z,3.37
2018-07-15T19:15:04.484Z,4.13
2018-07-15T19:17:31.887Z,4.20
2018-07-15T19:19:59.601Z,3.00
2018-07-15T19:22:28.332Z,3.20
2018-07-15T19:24:55.871Z,2.83
2018-07-15T19:27:23.068Z,3.03
2018-07-15T19:29:50.199Z,3.33
2018-07-15T19:32:17.385Z,3.00
2018-07-15T19:34:44.626Z,3.53
2018-07-15T19:37:11.788Z,6.07
2018-07-15T19:39:40.006Z,4.78
2018-07-15T19:42:07.236Z,2.90
2018-07-15T19:44:34.852Z,3.20
2018-07-15T19:47:02.404Z,5.73
2018-07-15T19:49:30.671Z,4.10
2018-07-15T19:51:59.073Z,3.47
2018-07-15T19:54:27.588Z,3.93
2018-07-15T19:56:54.712Z,5.67
2018-07-15T19:59:22.066Z,3.30
2018-07-15T20:01:55.941Z,5.93
2018-07-15T20:04:23.535Z,3.50
2018-07-15T20:06:51.461Z,3.83
2018-07-15T20:09:18.647Z,5.30
2018-07-15T20:11:47.941Z,4.17
2018-07-15T20:14:15.245Z,4.33
2018-07-15T20:16:43.601Z,4.13
2018-07-15T20:19:11.997Z,5.60
2018-07-15T20:21:39.490Z,3.97
2018-07-15T20:24:07.237Z,5.73
2018-07-15T20:26:35.131Z,3.93
2018-07-15T20:29:04.041Z,4.93
2018-07-15T20:31:31.235Z,4.67
2018-07-15T20:33:58.470Z,5.23
2018-07-15T20:36:25.570Z,4.53
2018-07-15T20:38:53.709Z,5.27
2018-07-15T20:41:20.880Z,4.30
2018-07-15T20:43:48.057Z,7.57
2018-07-15T20:46:15.377Z,4.20
2018-07-15T20:48:43.042Z,7.33
2018-07-15T20:51:10.736Z,4.70
2018-07-15T20:53:38.494Z,4.60
2018-07-15T20:56:05.867Z,7.13
2018-07-15T20:58:33.493Z,5.80
2018-07-15T21:01:00.737Z,4.97
2018-07-15T21:03:28.892Z,5.20
2018-07-15T21:05:56.078Z,5.63
2018-07-15T21:08:23.154Z,5.57
2018-07-15T21:10:50.426Z,6.97
2018-07-15T21:13:17.565Z,6.15
2018-07-15T21:15:44.960Z,5.63
2018-07-15T21:18:12.376Z,5.13
2018-07-15T21:20:39.790Z,4.77
2018-07-15T21:23:07.735Z,5.00
2018-07-15T21:25:34.958Z,6.00
2018-07-15T21:28:02.088Z,5.67
2018-07-15T21:30:29.227Z,5.50
2018-07-15T21:32:56.435Z,7.47
2018-07-15T21:35:23.586Z,5.00
2018-07-15T21:37:50.852Z,4.60
2018-07-15T21:40:18.077Z,5.90
2018-07-15T21:42:45.203Z,4.77
2018-07-15T21:45:12.325Z,5.03
2018-07-15T21:47:40.169Z,4.97
2018-07-15T21:50:07.334Z,5.03
2018-07-15T21:52:34.584Z,4.53
2018-07-15T21:55:01.749Z,4.53
2018-07-15T21:57:28.912Z,4.43
2018-07-15T21:59:56.044Z,4.47
2018-07-15T22:02:23.188Z,4.57
2018-07-15T22:04:50.317Z,5.67
2018-07-15T22:07:29.785Z,4.40
2018-07-15T22:10:04.249Z,4.37
2018-07-15T22:12:31.460Z,4.73
2018-07-15T22:14:58.675Z,4.90
2018-07-15T22:17:25.812Z,6.60
2018-07-15T22:19:54.023Z,4.80
2018-07-15T22:22:21.118Z,4.77
2018-07-15T22:24:48.219Z,6.40
2018-07-15T22:27:15.371Z,5.33
2018-07-15T22:29:42.488Z,6.33
2018-07-15T22:32:09.686Z,6.07
2018-07-15T22:34:36.870Z,8.30
2018-07-15T22:37:04.007Z,4.87
2018-07-15T22:39:31.123Z,5.53
2018-07-15T22:41:58.398Z,6.07
2018-07-15T22:44:25.542Z,5.43
2018-07-15T22:46:52.724Z,7.83
2018-07-15T22:49:20.668Z,5.50
2018-07-15T22:51:47.832Z,6.47
2018-07-15T22:54:14.904Z,5.03
2018-07-15T22:56:42.036Z,5.67
2018-07-15T22:59:09.123Z,6.00
2018-07-15T23:01:36.671Z,5.67
2018-07-15T23:04:03.851Z,6.70
2018-07-15T23:06:31.075Z,6.53
2018-07-15T23:08:58.220Z,6.07
2018-07-15T23:11:25.385Z,6.13
2018-07-15T23:13:52.535Z,5.30
2018-07-15T23:16:19.672Z,7.80
2018-07-15T23:18:47.339Z,6.33
2018-07-15T23:21:15.016Z,6.90
2018-07-15T23:23:42.091Z,7.50
2018-07-15T23:26:09.261Z,6.37
2018-07-15T23:28:36.388Z,7.73
2018-07-15T23:31:03.496Z,6.07
2018-07-15T23:33:30.655Z,6.43
2018-07-15T23:35:58.677Z,7.67
2018-07-15T23:38:25.815Z,6.60
2018-07-15T23:40:53.008Z,6.60
2018-07-15T23:43:21.001Z,7.50
2018-07-15T23:45:48.140Z,6.43
2018-07-15T23:48:15.348Z,6.47
2018-07-15T23:50:42.457Z,6.20
2018-07-15T23:53:09.573Z,8.00
2018-07-15T23:55:36.703Z,6.57
2018-07-15T23:58:04.771Z,6.57
